ADDS METAR Data INFO
IDs: Format: Raw Decoded Include TAF

Data at: 2309 UTC 21 Feb 2018

KZZV 212305Z AUTO 02011KT 10SM OVC016 07/04 A3045 RMK AO2 T00720039
KZZV 212253Z AUTO 01008KT 10SM OVC014 08/04 A3045 RMK AO2 SLP311 T00780039
KZZV 212238Z AUTO 02009KT 10SM BKN015 OVC019 08/04 A3044 RMK AO2 T00780044
KZZV 212153Z AUTO 36006KT 10SM OVC010 08/06 A3042 RMK AO2 SLP301 T00830056
KZZV 212053Z AUTO 36007KT 10SM OVC009 08/06 A3041 RMK AO2 CIG 007V014 SLP296 60005 T00830061 53022
KZZV 211953Z AUTO 36013G16KT 10SM OVC007 10/08 A3038 RMK AO2 RAE12 SLP287 P0001 T01000078
KZZV 211945Z AUTO 34011KT 10SM OVC007 10/08 A3038 RMK AO2 RAE12 P0001 T01000083
KZZV 211905Z AUTO 36011KT 3SM -RA BR BKN006 OVC011 12/10 A3035 RMK AO2 CIG 004V008 P0001 T01170100
KZZV 211853Z AUTO 36008G16KT 1 1/2SM RA BR BKN006 BKN011 OVC017 13/11 A3035 RMK AO2 CIG 004V008 SLP277 P0004 T01280111
KZZV 211848Z AUTO 35011G16KT 2 1/2SM -RA BR BKN009 OVC017 13/12 A3036 RMK AO2 CIG 006V012 P0003
KZZV 211805Z AUTO VRB03KT 5SM -RA BR FEW008 BKN019 OVC055 14/13 A3034 RMK AO2 P0001 T01440128
KZZV 211753Z AUTO 34004KT 9SM -RA FEW009 SCT020 OVC050 15/12 A3034 RMK AO2 RAB1659E08B53 SLP271 P0000 60004 T01500122 10200 20144 51027
KZZV 211724Z AUTO 35005KT 10SM SCT009 OVC050 15/12 A3033 RMK AO2 RAB1659E08 P0000 T01500122
KZZV 211653Z AUTO 00000KT 10SM OVC049 14/12 A3033 RMK AO2 RAB1559E33 SLP268 P0004 T01440122
KZZV 211621Z AUTO 34003KT 4SM -RA BR BKN040 OVC055 14/12 A3033 RMK AO2 RAB1559 P0004 T01440122
KZZV 211613Z AUTO 33004KT 2 1/2SM -RA OVC038 14/12 A3032 RMK AO2 RAB1559 P0003 T01440117
KZZV 211553Z AUTO 33007KT 10SM OVC034 15/11 A3031 RMK AO2 RAB31E53 SLP262 P0000 T01500111
KZZV 211453Z AUTO 33009KT 10SM OVC031 17/12 A3026 RMK AO2 SLP242 60000 T01720122 53033
KZZV 211353Z AUTO 28012G18KT 10SM OVC034 19/12 A3023 RMK AO2 RAB24E45 SLP234 P0000 T01940122
KZZV 211253Z AUTO 20013KT 10SM SCT044 BKN060 OVC085 19/12 A3018 RMK AO2 SLP215 T01940117
KZZV 210753Z AUTO 19009KT 10SM OVC085 20/11 A3016 RMK AO2 SLP205 T02000106
KZZV 210653Z AUTO 19010KT 10SM OVC080 20/11 A3017 RMK AO2 SLP210 T02000111
KZZV 210553Z AUTO 19009KT 10SM FEW080 19/11 A3017 RMK AO2 SLP209 T01940111 10222 20178 58003
KZZV 201453Z AUTO 21013G22KT 10SM FEW110 20/13 A3020 RMK AO2 SLP221 T02000128 50006
KZZV 201353Z AUTO 19011KT 10SM CLR 18/12 A3020 RMK AO2 SLP223 T01830117
KZZV 201253Z AUTO 19012KT 10SM CLR 17/11 A3019 RMK AO2 SLP219 T01670111
KZZV 201153Z AUTO 19010KT 10SM OVC095 17/11 A3018 RMK AO2 SLP216 70020 T01670111 10178 20167 51012